Share

Agana Heights, GU

Maite (KGUMAITE2) Elev 140 ft | 13.48 °N, 144.76 °E | Change Station

Current weather conditions updated 1 second ago

Partly Cloudy
Partly Cloudy
86.0 °F
Feels Like 99 °F
N
7.0
Wind Variable Wind from SSE
Gusts 15.0 mph
Sunrise 6:04 AM
Sunset 6:34 PM
Moon Waning Gibbous

Today is forecast to be nearly the same temperature as yesterday.

Pressure 29.85 in
Visibility 10.0 miles
Clouds Few 1900 ft
Heat Index 99 °F
Dew Point 78 °F
Humidity 78%
Rainfall 0.06 in
Snow Depth Not available.
UV 7.1 out of 16
Pollen Not available.
Air Quality Not available.
Flu Activity Regional
METAR PGUM 210454Z 13010G17KT 10SM FEW019 31/25 A2987 RMK AO2 SLP106 T03060250

More Conditions Fewer Conditions

Pressure 29.85 in
Visibility 10.0 miles
Clouds Few 1900 ft
Heat Index 99 °F
Dew Point 78 °F
Humidity 78%
Rainfall 0.06 in
Snow Depth Not available.
UV 7.1 out of 16
Pollen Not available.
Air Quality Not available.
Flu Activity Regional
METAR PGUM 210454Z 13010G17KT 10SM FEW019 31/25 A2987 RMK AO2 SLP106 T03060250

More Conditions Fewer Conditions

10-Day Weather Forecast

Almanac

Astronomy

Apr. 21, 2014 Rise Set
Actual Time 6:04 AM ChST 6:34 PM ChST
Civil Twilight 5:43 AM ChST 6:56 PM ChST
Nautical Twilight 5:17 AM ChST 7:22 PM ChST
Astronomical Twilight 4:52 AM ChST 7:47 PM ChST
Moon No Moon Rise 11:04 AM ChST
Length of Visible Light 13h 13m
Length of Day
12h 29m
Tomorrow will be 0m 41s longer.
Waning Gibbous, 63% of the Moon is Illuminated
Today
Waning Gibbous
Apr 22
Last Quarter
Apr 29
New
May 6
First Quarter
May 14
Full

Community

  • Snowy Robin
    Snowy Robin
  • Sun Pillar and Geese
    Sun Pillar and Geese
  • Showers on the Way
    Showers on the Way
  • Easter Morning Fog
    Easter Morning Fog
  • Easter Dance
    Easter Dance

WunderPhotos

Upload Photos

1,703,561 photos uploaded!

WunderBlogs® & News

Nearby

Snow Depth

Station Depth Elevation
No new snow has been reported.

Coastal Water Temperatures

Place Temperature
No Stations Reporting

Earthquake Activity

City Distance Mag. Time & Date
No recent earthquake activity has been reported nearby.
Minimum magnitude displayed is 2.5.

Nearby Weather Stations

Station Location Temp. Heat Index Dew Point Humidity Wind Precip. Elev Updated Type
Maite, Maite, GU 86.0 °F 99 °F 78 °F 78% SSE  at  7.0 mph 0.00 in / hr 140 ft 3:17 PM ChST Rapid Fire
Ordot Dump, Guam 86.4 °F 101 °F 80 °F 80% SSE  at  2.0 mph 0.00 in / hr 282 ft 3:17 PM ChST Rapid Fire
Perezville, Tamuning, Guam 87.2 °F 99 °F 77 °F 72% ENE  at  9.0 mph 0.00 in / hr 120 ft 3:15 PM ChST Normal
Jeffs Pirates Cove, Guam, Ipan Talofofo, GU 87.6 °F 106 °F 81 °F 81% East  at  8.0 mph 0.00 in / hr 27 ft 3:17 PM ChST Rapid Fire

Show More Stations Show Fewer Stations

What do you think?

We're not finished. Please let us know what you like, what you don't like, and what you are still missing.